気象予報士の航空気象 夏日と真夏日

*All archives   *Admin

スポンサーサイト

上記の広告は1ヶ月以上更新のないブログに表示されています。
新しい記事を書く事で広告が消せます。
--:--  |  スポンサー広告  |  EDIT  |  Top↑

2010.05.04 (Tue)

夏日と真夏日

広島で夏日。


南風ふいて、地形の影響も考えられます。


ちなみに広島西飛行場では、


RJBH 040400Z 23004KT CAVOK 23/13 Q1015

RJBH 040500Z 22008KT CAVOK 24/13 Q1014

RJBH 040600Z 23008KT CAVOK 23/12 Q1013


少し高台の広島空港では、


RJOA 040400Z 21006KT 170V250 CAVOK 23/13 Q1016

RJOA 040500Z 18006KT 120V240 9999 FEW040 25/13 Q1015

RJOA 040600Z 20006KT 170V230 9999 FEW040 25/13 Q1015



広島で全国最高30.7度
   =各地で真夏日-気象庁
     5月4日18時7分配信 時事通信


 日本列島は4日、東北地方の太平洋側から南で気温が上昇した。気象庁によると、広島・加計(安芸太田町)で全国トップの30.7度を観測したのをはじめ、最高気温が30度以上の真夏日や25度以上の夏日となった所が多かった。

 これは、日本列島が東の海上にある高気圧に広く覆われ、南から暖かく湿った空気が入ってきたため。5日も同様の暑い日となる見込み。6日以降は天気が崩れ、曇りや雨の所が多くなるという。 




 
ブログランキングに参加しています。
にほんブログ村 環境ブログ 天気・気象学へ
にほんブログ村
応援クリックをおねがします。


以下、アフィリエイトサイトです。



スポンサーサイト
22:01  |  時事  |  TB(0)  |  CM(0)  |  EDIT  |  Top↑

コメントを投稿する


 管理者だけに表示  (非公開コメント投稿可能)

▲PageTop

この記事のトラックバックURL

→http://weathereucalyptus.blog115.fc2.com/tb.php/474-9de5567b
この記事にトラックバックする(FC2ブログユーザー)

この記事へのトラックバック

▲PageTop

 | BLOGTOP | 
上記広告は1ヶ月以上更新のないブログに表示されています。新しい記事を書くことで広告を消せます。